sensor_id;sensor_type;location;lat;lon;timestamp;temperature;humidity
7325;DHT22;3703;48.016;7.802;2022-07-09T00:01:42;18.80;1.00
7325;DHT22;3703;48.016;7.802;2022-07-09T00:04:29;18.40;99.90
7325;DHT22;3703;48.016;7.802;2022-07-09T00:07:17;18.50;1.00
7325;DHT22;3703;48.016;7.802;2022-07-09T00:10:07;18.50;99.90
7325;DHT22;3703;48.016;7.802;2022-07-09T00:12:56;18.60;1.00
7325;DHT22;3703;48.016;7.802;2022-07-09T00:15:44;18.60;1.00
7325;DHT22;3703;48.016;7.802;2022-07-09T00:18:31;18.70;1.00
7325;DHT22;3703;48.016;7.802;2022-07-09T00:21:19;18.60;1.00
7325;DHT22;3703;48.016;7.802;2022-07-09T00:24:07;18.40;68.20
7325;DHT22;3703;48.016;7.802;2022-07-09T00:26:56;18.60;1.00
7325;DHT22;3703;48.016;7.802;2022-07-09T00:29:43;18.40;99.90
7325;DHT22;3703;48.016;7.802;2022-07-09T00:32:31;18.40;99.90
7325;DHT22;3703;48.016;7.802;2022-07-09T00:35:19;18.50;71.50
7325;DHT22;3703;48.016;7.802;2022-07-09T00:38:06;18.40;1.00
7325;DHT22;3703;48.016;7.802;2022-07-09T00:40:54;18.40;89.70
7325;DHT22;3703;48.016;7.802;2022-07-09T00:43:48;18.60;1.00
7325;DHT22;3703;48.016;7.802;2022-07-09T00:46:36;18.50;1.00
7325;DHT22;3703;48.016;7.802;2022-07-09T00:49:25;18.50;1.00
7325;DHT22;3703;48.016;7.802;2022-07-09T00:52:16;18.40;1.00
7325;DHT22;3703;48.016;7.802;2022-07-09T00:55:05;18.50;1.00
7325;DHT22;3703;48.016;7.802;2022-07-09T00:57:53;18.20;4.20
7325;DHT22;3703;48.016;7.802;2022-07-09T01:00:44;18.20;1.00
7325;DHT22;3703;48.016;7.802;2022-07-09T01:03:32;18.10;1.00
7325;DHT22;3703;48.016;7.802;2022-07-09T01:06:20;17.90;25.90
7325;DHT22;3703;48.016;7.802;2022-07-09T01:09:09;17.80;99.90
7325;DHT22;3703;48.016;7.802;2022-07-09T01:11:57;17.90;99.90
7325;DHT22;3703;48.016;7.802;2022-07-09T01:14:45;18.00;99.90
7325;DHT22;3703;48.016;7.802;2022-07-09T01:17:38;18.20;99.90
7325;DHT22;3703;48.016;7.802;2022-07-09T01:20:28;17.80;99.90
7325;DHT22;3703;48.016;7.802;2022-07-09T01:23:16;17.80;99.90
7325;DHT22;3703;48.016;7.802;2022-07-09T01:26:04;17.90;99.90
7325;DHT22;3703;48.016;7.802;2022-07-09T01:28:53;17.80;99.90
7325;DHT22;3703;48.016;7.802;2022-07-09T01:31:41;17.70;78.00
7325;DHT22;3703;48.016;7.802;2022-07-09T01:34:28;17.50;99.90
7325;DHT22;3703;48.016;7.802;2022-07-09T01:37:18;17.70;99.90
7325;DHT22;3703;48.016;7.802;2022-07-09T01:40:08;17.80;99.90
7325;DHT22;3703;48.016;7.802;2022-07-09T01:42:56;17.60;99.90
7325;DHT22;3703;48.016;7.802;2022-07-09T01:45:44;17.30;99.90
7325;DHT22;3703;48.016;7.802;2022-07-09T01:48:34;17.20;99.90
7325;DHT22;3703;48.016;7.802;2022-07-09T01:51:22;17.40;99.90
7325;DHT22;3703;48.016;7.802;2022-07-09T01:54:11;17.30;99.90
7325;DHT22;3703;48.016;7.802;2022-07-09T01:56:59;17.30;99.90
7325;DHT22;3703;48.016;7.802;2022-07-09T01:59:47;17.30;99.90
7325;DHT22;3703;48.016;7.802;2022-07-09T02:02:34;17.20;1.00
7325;DHT22;3703;48.016;7.802;2022-07-09T02:05:22;17.20;1.00
7325;DHT22;3703;48.016;7.802;2022-07-09T02:08:10;17.00;1.00
7325;DHT22;3703;48.016;7.802;2022-07-09T02:10:59;17.00;1.00
7325;DHT22;3703;48.016;7.802;2022-07-09T02:13:47;17.20;99.90
7325;DHT22;3703;48.016;7.802;2022-07-09T02:16:34;17.20;1.00
7325;DHT22;3703;48.016;7.802;2022-07-09T02:19:22;17.00;1.00
7325;DHT22;3703;48.016;7.802;2022-07-09T02:22:10;17.00;1.00
7325;DHT22;3703;48.016;7.802;2022-07-09T02:24:57;17.10;1.00
7325;DHT22;3703;48.016;7.802;2022-07-09T02:27:46;17.10;1.00
7325;DHT22;3703;48.016;7.802;2022-07-09T02:30:34;17.10;1.00
7325;DHT22;3703;48.016;7.802;2022-07-09T02:33:22;17.10;1.00
7325;DHT22;3703;48.016;7.802;2022-07-09T02:36:10;17.10;99.90
7325;DHT22;3703;48.016;7.802;2022-07-09T02:38:58;17.10;1.00
7325;DHT22;3703;48.016;7.802;2022-07-09T02:41:45;16.80;1.00
7325;DHT22;3703;48.016;7.802;2022-07-09T02:44:35;17.00;1.00
7325;DHT22;3703;48.016;7.802;2022-07-09T02:47:22;17.10;1.00
7325;DHT22;3703;48.016;7.802;2022-07-09T02:50:10;17.10;1.00
7325;DHT22;3703;48.016;7.802;2022-07-09T02:52:58;16.90;1.00
7325;DHT22;3703;48.016;7.802;2022-07-09T02:55:46;16.50;1.00
7325;DHT22;3703;48.016;7.802;2022-07-09T02:58:34;16.40;1.00
7325;DHT22;3703;48.016;7.802;2022-07-09T03:01:23;16.80;1.00
7325;DHT22;3703;48.016;7.802;2022-07-09T03:04:11;17.00;1.00
7325;DHT22;3703;48.016;7.802;2022-07-09T03:06:59;16.90;1.00
7325;DHT22;3703;48.016;7.802;2022-07-09T03:09:46;17.00;1.00
7325;DHT22;3703;48.016;7.802;2022-07-09T03:12:34;17.00;1.00
7325;DHT22;3703;48.016;7.802;2022-07-09T03:15:22;17.00;1.00
7325;DHT22;3703;48.016;7.802;2022-07-09T03:18:11;17.00;1.00
7325;DHT22;3703;48.016;7.802;2022-07-09T03:20:59;16.90;1.00
7325;DHT22;3703;48.016;7.802;2022-07-09T03:23:47;16.90;1.00
7325;DHT22;3703;48.016;7.802;2022-07-09T03:26:35;16.80;1.00
7325;DHT22;3703;48.016;7.802;2022-07-09T03:29:23;16.90;99.90
7325;DHT22;3703;48.016;7.802;2022-07-09T03:32:11;16.80;1.00
7325;DHT22;3703;48.016;7.802;2022-07-09T03:35:00;16.70;1.00
7325;DHT22;3703;48.016;7.802;2022-07-09T03:37:48;16.70;1.00
7325;DHT22;3703;48.016;7.802;2022-07-09T03:40:35;16.60;1.00
7325;DHT22;3703;48.016;7.802;2022-07-09T03:43:23;16.50;1.00
7325;DHT22;3703;48.016;7.802;2022-07-09T03:46:11;16.50;1.00
7325;DHT22;3703;48.016;7.802;2022-07-09T03:48:58;16.60;1.00
7325;DHT22;3703;48.016;7.802;2022-07-09T03:51:47;16.60;1.00
7325;DHT22;3703;48.016;7.802;2022-07-09T03:54:35;16.60;1.00
7325;DHT22;3703;48.016;7.802;2022-07-09T03:57:23;16.60;1.00
7325;DHT22;3703;48.016;7.802;2022-07-09T04:00:11;16.50;1.00
7325;DHT22;3703;48.016;7.802;2022-07-09T04:02:59;16.40;1.00
7325;DHT22;3703;48.016;7.802;2022-07-09T04:05:47;16.60;1.00
7325;DHT22;3703;48.016;7.802;2022-07-09T04:08:36;16.40;1.00
7325;DHT22;3703;48.016;7.802;2022-07-09T04:11:24;16.40;1.00
7325;DHT22;3703;48.016;7.802;2022-07-09T04:14:11;16.30;1.00
7325;DHT22;3703;48.016;7.802;2022-07-09T04:17:00;16.30;1.00
7325;DHT22;3703;48.016;7.802;2022-07-09T04:19:48;16.40;1.00
7325;DHT22;3703;48.016;7.802;2022-07-09T04:22:35;16.50;1.00
7325;DHT22;3703;48.016;7.802;2022-07-09T04:25:24;16.50;1.00
7325;DHT22;3703;48.016;7.802;2022-07-09T04:28:12;16.50;1.00
7325;DHT22;3703;48.016;7.802;2022-07-09T04:31:00;16.50;1.00
7325;DHT22;3703;48.016;7.802;2022-07-09T04:33:48;16.40;1.00
7325;DHT22;3703;48.016;7.802;2022-07-09T04:36:36;16.30;1.00
7325;DHT22;3703;48.016;7.802;2022-07-09T04:39:23;16.30;1.00
7325;DHT22;3703;48.016;7.802;2022-07-09T04:42:12;16.40;1.00
7325;DHT22;3703;48.016;7.802;2022-07-09T04:45:00;16.50;1.00
7325;DHT22;3703;48.016;7.802;2022-07-09T04:47:48;16.40;1.00
7325;DHT22;3703;48.016;7.802;2022-07-09T04:50:36;16.40;1.00
7325;DHT22;3703;48.016;7.802;2022-07-09T04:53:23;16.50;1.00
7325;DHT22;3703;48.016;7.802;2022-07-09T04:56:11;16.60;1.00
7325;DHT22;3703;48.016;7.802;2022-07-09T04:59:00;16.60;1.00
7325;DHT22;3703;48.016;7.802;2022-07-09T05:01:48;16.70;1.00
7325;DHT22;3703;48.016;7.802;2022-07-09T05:04:36;16.80;1.00
7325;DHT22;3703;48.016;7.802;2022-07-09T05:07:24;16.80;1.00
7325;DHT22;3703;48.016;7.802;2022-07-09T05:10:12;16.90;1.00
7325;DHT22;3703;48.016;7.802;2022-07-09T05:12:59;17.20;99.90
7325;DHT22;3703;48.016;7.802;2022-07-09T05:15:49;17.40;99.90
7325;DHT22;3703;48.016;7.802;2022-07-09T05:18:36;17.00;99.90
7325;DHT22;3703;48.016;7.802;2022-07-09T05:21:24;17.50;99.90
7325;DHT22;3703;48.016;7.802;2022-07-09T05:24:12;17.60;99.90
7325;DHT22;3703;48.016;7.802;2022-07-09T05:26:59;17.70;99.90
7325;DHT22;3703;48.016;7.802;2022-07-09T05:29:47;17.70;99.90
7325;DHT22;3703;48.016;7.802;2022-07-09T05:32:37;17.70;99.90
7325;DHT22;3703;48.016;7.802;2022-07-09T05:35:25;17.80;99.90
7325;DHT22;3703;48.016;7.802;2022-07-09T05:38:13;17.90;99.90
7325;DHT22;3703;48.016;7.802;2022-07-09T05:41:00;18.00;99.90
7325;DHT22;3703;48.016;7.802;2022-07-09T05:43:48;18.20;99.90
7325;DHT22;3703;48.016;7.802;2022-07-09T05:46:36;18.30;99.90
7325;DHT22;3703;48.016;7.802;2022-07-09T05:49:25;18.10;99.90
7325;DHT22;3703;48.016;7.802;2022-07-09T05:52:13;18.20;99.90
7325;DHT22;3703;48.016;7.802;2022-07-09T05:55:00;18.30;99.90
7325;DHT22;3703;48.016;7.802;2022-07-09T05:57:49;18.50;99.90
7325;DHT22;3703;48.016;7.802;2022-07-09T06:00:36;18.60;29.40
7325;DHT22;3703;48.016;7.802;2022-07-09T06:03:24;18.70;1.00
7325;DHT22;3703;48.016;7.802;2022-07-09T06:06:13;18.70;1.00
7325;DHT22;3703;48.016;7.802;2022-07-09T06:09:01;18.70;1.00
7325;DHT22;3703;48.016;7.802;2022-07-09T06:11:49;18.50;1.00
7325;DHT22;3703;48.016;7.802;2022-07-09T06:14:36;18.70;99.90
7325;DHT22;3703;48.016;7.802;2022-07-09T06:17:24;18.70;99.90
7325;DHT22;3703;48.016;7.802;2022-07-09T06:20:12;19.20;99.90
7325;DHT22;3703;48.016;7.802;2022-07-09T06:23:01;19.40;1.00
7325;DHT22;3703;48.016;7.802;2022-07-09T06:25:49;19.60;1.00
7325;DHT22;3703;48.016;7.802;2022-07-09T06:28:37;19.80;1.00
7325;DHT22;3703;48.016;7.802;2022-07-09T06:31:25;20.00;1.00
7325;DHT22;3703;48.016;7.802;2022-07-09T06:34:13;20.10;1.00
7325;DHT22;3703;48.016;7.802;2022-07-09T06:37:01;20.00;99.90
7325;DHT22;3703;48.016;7.802;2022-07-09T06:39:50;20.00;1.00
7325;DHT22;3703;48.016;7.802;2022-07-09T06:42:41;20.00;1.00
7325;DHT22;3703;48.016;7.802;2022-07-09T06:45:29;20.20;99.90
7325;DHT22;3703;48.016;7.802;2022-07-09T06:48:17;20.10;1.00
7325;DHT22;3703;48.016;7.802;2022-07-09T06:51:05;19.90;99.90
7325;DHT22;3703;48.016;7.802;2022-07-09T06:53:53;20.10;1.00
7325;DHT22;3703;48.016;7.802;2022-07-09T06:56:42;20.30;1.00
7325;DHT22;3703;48.016;7.802;2022-07-09T06:59:30;20.50;1.00
7325;DHT22;3703;48.016;7.802;2022-07-09T07:02:18;20.60;1.00
7325;DHT22;3703;48.016;7.802;2022-07-09T07:05:06;20.70;14.30
7325;DHT22;3703;48.016;7.802;2022-07-09T07:07:54;20.70;25.30
7325;DHT22;3703;48.016;7.802;2022-07-09T07:10:43;20.40;48.30
7325;DHT22;3703;48.016;7.802;2022-07-09T07:13:32;20.40;1.00
7325;DHT22;3703;48.016;7.802;2022-07-09T07:16:20;20.50;1.00
7325;DHT22;3703;48.016;7.802;2022-07-09T07:19:07;20.70;1.00
7325;DHT22;3703;48.016;7.802;2022-07-09T07:21:56;20.60;99.90
7325;DHT22;3703;48.016;7.802;2022-07-09T07:24:43;20.70;99.90
7325;DHT22;3703;48.016;7.802;2022-07-09T07:27:31;20.90;99.90
7325;DHT22;3703;48.016;7.802;2022-07-09T07:30:20;21.10;99.90
7325;DHT22;3703;48.016;7.802;2022-07-09T07:33:08;21.20;1.00
7325;DHT22;3703;48.016;7.802;2022-07-09T07:35:56;21.10;1.00
7325;DHT22;3703;48.016;7.802;2022-07-09T07:38:44;21.00;99.90
7325;DHT22;3703;48.016;7.802;2022-07-09T07:41:32;21.00;99.90
7325;DHT22;3703;48.016;7.802;2022-07-09T07:44:20;20.60;99.90
7325;DHT22;3703;48.016;7.802;2022-07-09T07:47:10;20.80;1.00
7325;DHT22;3703;48.016;7.802;2022-07-09T07:49:58;20.90;99.90
7325;DHT22;3703;48.016;7.802;2022-07-09T07:52:46;21.10;99.90
7325;DHT22;3703;48.016;7.802;2022-07-09T07:55:33;21.20;99.90
7325;DHT22;3703;48.016;7.802;2022-07-09T07:58:21;21.30;1.00
7325;DHT22;3703;48.016;7.802;2022-07-09T08:01:09;21.20;1.00
7325;DHT22;3703;48.016;7.802;2022-07-09T08:03:58;21.30;4.80
7325;DHT22;3703;48.016;7.802;2022-07-09T08:06:46;21.10;99.90
7325;DHT22;3703;48.016;7.802;2022-07-09T08:09:33;20.70;99.90
7325;DHT22;3703;48.016;7.802;2022-07-09T08:12:21;20.60;99.90
7325;DHT22;3703;48.016;7.802;2022-07-09T08:15:09;20.90;99.90
7325;DHT22;3703;48.016;7.802;2022-07-09T08:17:57;21.10;1.00
7325;DHT22;3703;48.016;7.802;2022-07-09T08:20:46;21.30;99.90
7325;DHT22;3703;48.016;7.802;2022-07-09T08:23:35;21.50;99.90
7325;DHT22;3703;48.016;7.802;2022-07-09T08:26:37;21.60;1.00
7325;DHT22;3703;48.016;7.802;2022-07-09T08:29:24;21.70;99.90
7325;DHT22;3703;48.016;7.802;2022-07-09T08:32:12;21.80;1.00
7325;DHT22;3703;48.016;7.802;2022-07-09T08:35:00;21.90;1.00
7325;DHT22;3703;48.016;7.802;2022-07-09T08:37:49;22.10;99.90
7325;DHT22;3703;48.016;7.802;2022-07-09T08:40:37;22.10;29.80
7325;DHT22;3703;48.016;7.802;2022-07-09T08:43:25;22.10;99.90
7325;DHT22;3703;48.016;7.802;2022-07-09T08:46:13;22.20;99.90
7325;DHT22;3703;48.016;7.802;2022-07-09T08:49:01;22.30;99.90
7325;DHT22;3703;48.016;7.802;2022-07-09T08:51:51;22.40;1.00
7325;DHT22;3703;48.016;7.802;2022-07-09T08:54:41;22.50;1.00
7325;DHT22;3703;48.016;7.802;2022-07-09T08:57:29;22.60;99.90
7325;DHT22;3703;48.016;7.802;2022-07-09T09:00:17;22.70;1.00
7325;DHT22;3703;48.016;7.802;2022-07-09T09:03:05;22.70;1.00
7325;DHT22;3703;48.016;7.802;2022-07-09T09:06:04;22.80;1.00
7325;DHT22;3703;48.016;7.802;2022-07-09T09:08:54;23.10;99.90
7325;DHT22;3703;48.016;7.802;2022-07-09T09:11:47;23.00;99.90
7325;DHT22;3703;48.016;7.802;2022-07-09T09:14:35;23.20;1.00
7325;DHT22;3703;48.016;7.802;2022-07-09T09:17:23;23.30;1.00
7325;DHT22;3703;48.016;7.802;2022-07-09T09:20:12;23.50;99.90
7325;DHT22;3703;48.016;7.802;2022-07-09T09:23:00;23.60;99.90
7325;DHT22;3703;48.016;7.802;2022-07-09T09:25:50;23.70;99.90
7325;DHT22;3703;48.016;7.802;2022-07-09T09:28:52;23.70;99.90
7325;DHT22;3703;48.016;7.802;2022-07-09T09:31:40;23.90;77.70
7325;DHT22;3703;48.016;7.802;2022-07-09T09:34:28;24.10;1.00
7325;DHT22;3703;48.016;7.802;2022-07-09T09:37:25;24.30;99.90
7325;DHT22;3703;48.016;7.802;2022-07-09T09:40:14;24.40;1.00
7325;DHT22;3703;48.016;7.802;2022-07-09T09:43:03;24.50;99.90
7325;DHT22;3703;48.016;7.802;2022-07-09T09:45:54;24.60;99.90
7325;DHT22;3703;48.016;7.802;2022-07-09T09:48:44;24.80;99.90
7325;DHT22;3703;48.016;7.802;2022-07-09T09:51:34;25.00;99.90
7325;DHT22;3703;48.016;7.802;2022-07-09T09:54:23;24.80;1.00
7325;DHT22;3703;48.016;7.802;2022-07-09T09:57:11;24.90;1.00
7325;DHT22;3703;48.016;7.802;2022-07-09T09:59:59;25.00;1.00
7325;DHT22;3703;48.016;7.802;2022-07-09T10:02:49;25.20;1.00
7325;DHT22;3703;48.016;7.802;2022-07-09T10:05:37;25.30;1.00
7325;DHT22;3703;48.016;7.802;2022-07-09T10:08:25;25.30;1.00
7325;DHT22;3703;48.016;7.802;2022-07-09T10:11:13;25.50;1.00
7325;DHT22;3703;48.016;7.802;2022-07-09T10:14:00;25.50;99.90
7325;DHT22;3703;48.016;7.802;2022-07-09T10:16:48;25.60;1.00
7325;DHT22;3703;48.016;7.802;2022-07-09T10:19:38;25.70;1.00
7325;DHT22;3703;48.016;7.802;2022-07-09T10:22:34;25.40;99.90
7325;DHT22;3703;48.016;7.802;2022-07-09T10:25:27;24.90;99.90
7325;DHT22;3703;48.016;7.802;2022-07-09T10:28:17;24.90;99.90
7325;DHT22;3703;48.016;7.802;2022-07-09T10:31:07;24.90;99.90
7325;DHT22;3703;48.016;7.802;2022-07-09T10:34:01;25.50;1.00
7325;DHT22;3703;48.016;7.802;2022-07-09T10:36:59;25.70;1.00
7325;DHT22;3703;48.016;7.802;2022-07-09T10:40:03;25.70;1.00
7325;DHT22;3703;48.016;7.802;2022-07-09T10:42:59;26.00;1.00
7325;DHT22;3703;48.016;7.802;2022-07-09T10:45:48;26.10;1.00
7325;DHT22;3703;48.016;7.802;2022-07-09T10:48:36;26.40;1.00
7325;DHT22;3703;48.016;7.802;2022-07-09T10:51:23;26.50;99.90
7325;DHT22;3703;48.016;7.802;2022-07-09T10:54:16;26.60;1.00
7325;DHT22;3703;48.016;7.802;2022-07-09T10:57:05;26.80;1.00
7325;DHT22;3703;48.016;7.802;2022-07-09T10:59:52;27.10;1.00
7325;DHT22;3703;48.016;7.802;2022-07-09T11:02:51;26.90;99.90
7325;DHT22;3703;48.016;7.802;2022-07-09T11:05:46;26.90;99.90
7325;DHT22;3703;48.016;7.802;2022-07-09T11:08:33;27.00;99.90
7325;DHT22;3703;48.016;7.802;2022-07-09T11:11:23;27.10;99.90
7325;DHT22;3703;48.016;7.802;2022-07-09T11:14:11;27.20;99.90
7325;DHT22;3703;48.016;7.802;2022-07-09T11:16:59;27.40;99.90
7325;DHT22;3703;48.016;7.802;2022-07-09T11:19:47;27.50;99.90
7325;DHT22;3703;48.016;7.802;2022-07-09T11:22:35;27.50;99.90
7325;DHT22;3703;48.016;7.802;2022-07-09T11:25:23;27.70;99.90
7325;DHT22;3703;48.016;7.802;2022-07-09T11:28:20;27.80;99.90
7325;DHT22;3703;48.016;7.802;2022-07-09T11:31:09;27.90;99.90
7325;DHT22;3703;48.016;7.802;2022-07-09T11:33:58;27.90;97.90
7325;DHT22;3703;48.016;7.802;2022-07-09T11:36:59;28.10;99.90
7325;DHT22;3703;48.016;7.802;2022-07-09T11:39:50;28.30;99.90
7325;DHT22;3703;48.016;7.802;2022-07-09T11:42:41;28.40;1.00
7325;DHT22;3703;48.016;7.802;2022-07-09T11:45:31;28.40;19.90
7325;DHT22;3703;48.016;7.802;2022-07-09T11:48:19;28.40;37.10
7325;DHT22;3703;48.016;7.802;2022-07-09T11:51:06;28.60;37.50
7325;DHT22;3703;48.016;7.802;2022-07-09T11:53:54;28.80;4.50
7325;DHT22;3703;48.016;7.802;2022-07-09T11:56:42;28.80;15.30
7325;DHT22;3703;48.016;7.802;2022-07-09T11:59:31;28.90;1.00
7325;DHT22;3703;48.016;7.802;2022-07-09T12:02:29;29.00;1.00
7325;DHT22;3703;48.016;7.802;2022-07-09T12:05:25;29.20;1.00
7325;DHT22;3703;48.016;7.802;2022-07-09T12:08:26;29.30;1.00
7325;DHT22;3703;48.016;7.802;2022-07-09T12:11:15;29.30;1.00
7325;DHT22;3703;48.016;7.802;2022-07-09T12:14:13;29.30;1.00
7325;DHT22;3703;48.016;7.802;2022-07-09T12:17:01;29.30;1.00
7325;DHT22;3703;48.016;7.802;2022-07-09T12:19:51;29.30;1.00
7325;DHT22;3703;48.016;7.802;2022-07-09T12:22:39;29.30;1.00
7325;DHT22;3703;48.016;7.802;2022-07-09T12:25:27;29.40;1.00
7325;DHT22;3703;48.016;7.802;2022-07-09T12:28:15;29.30;1.00
7325;DHT22;3703;48.016;7.802;2022-07-09T12:31:03;29.40;1.00
7325;DHT22;3703;48.016;7.802;2022-07-09T12:33:51;29.80;1.00
7325;DHT22;3703;48.016;7.802;2022-07-09T12:36:40;29.80;1.00
7325;DHT22;3703;48.016;7.802;2022-07-09T12:39:28;29.70;1.00
7325;DHT22;3703;48.016;7.802;2022-07-09T12:42:16;29.80;1.00
7325;DHT22;3703;48.016;7.802;2022-07-09T12:45:05;30.00;1.00
7325;DHT22;3703;48.016;7.802;2022-07-09T12:47:53;30.00;1.00
7325;DHT22;3703;48.016;7.802;2022-07-09T12:50:41;30.10;1.00
7325;DHT22;3703;48.016;7.802;2022-07-09T12:53:30;29.90;1.00
7325;DHT22;3703;48.016;7.802;2022-07-09T12:56:18;29.80;1.00
7325;DHT22;3703;48.016;7.802;2022-07-09T12:59:06;29.90;1.00
7325;DHT22;3703;48.016;7.802;2022-07-09T13:01:53;29.90;99.90
7325;DHT22;3703;48.016;7.802;2022-07-09T13:04:41;30.00;1.00
7325;DHT22;3703;48.016;7.802;2022-07-09T13:07:29;30.10;1.00
7325;DHT22;3703;48.016;7.802;2022-07-09T13:10:18;30.30;1.00
7325;DHT22;3703;48.016;7.802;2022-07-09T13:13:05;30.50;1.00
7325;DHT22;3703;48.016;7.802;2022-07-09T13:15:53;30.50;99.90
7325;DHT22;3703;48.016;7.802;2022-07-09T13:18:41;30.60;99.90
7325;DHT22;3703;48.016;7.802;2022-07-09T13:21:29;30.60;99.90
7325;DHT22;3703;48.016;7.802;2022-07-09T13:24:18;30.50;99.90
7325;DHT22;3703;48.016;7.802;2022-07-09T13:27:07;30.40;99.90
7325;DHT22;3703;48.016;7.802;2022-07-09T13:29:56;30.30;99.90
7325;DHT22;3703;48.016;7.802;2022-07-09T13:32:44;30.50;99.90
7325;DHT22;3703;48.016;7.802;2022-07-09T13:35:32;30.60;99.90
7325;DHT22;3703;48.016;7.802;2022-07-09T13:38:19;30.80;99.90
7325;DHT22;3703;48.016;7.802;2022-07-09T13:41:07;31.00;99.90
7325;DHT22;3703;48.016;7.802;2022-07-09T13:43:56;31.00;99.90
7325;DHT22;3703;48.016;7.802;2022-07-09T13:46:44;31.10;99.90
7325;DHT22;3703;48.016;7.802;2022-07-09T13:49:31;31.10;99.90
7325;DHT22;3703;48.016;7.802;2022-07-09T13:52:19;30.80;99.90
7325;DHT22;3703;48.016;7.802;2022-07-09T13:55:07;31.10;99.90
7325;DHT22;3703;48.016;7.802;2022-07-09T13:57:55;31.40;99.90
7325;DHT22;3703;48.016;7.802;2022-07-09T14:00:44;31.60;99.90
7325;DHT22;3703;48.016;7.802;2022-07-09T14:03:32;31.20;99.90
7325;DHT22;3703;48.016;7.802;2022-07-09T14:06:20;31.40;99.90
7325;DHT22;3703;48.016;7.802;2022-07-09T14:09:08;31.40;99.90
7325;DHT22;3703;48.016;7.802;2022-07-09T14:11:56;31.30;99.90
7325;DHT22;3703;48.016;7.802;2022-07-09T14:14:43;31.30;99.90
7325;DHT22;3703;48.016;7.802;2022-07-09T14:17:33;31.50;99.90
7325;DHT22;3703;48.016;7.802;2022-07-09T14:20:21;31.60;99.90
7325;DHT22;3703;48.016;7.802;2022-07-09T14:23:09;31.60;99.90
7325;DHT22;3703;48.016;7.802;2022-07-09T14:25:56;31.60;99.90
7325;DHT22;3703;48.016;7.802;2022-07-09T14:28:44;31.80;99.90
7325;DHT22;3703;48.016;7.802;2022-07-09T14:31:32;31.80;99.90
7325;DHT22;3703;48.016;7.802;2022-07-09T14:34:21;31.90;99.90
7325;DHT22;3703;48.016;7.802;2022-07-09T14:37:10;31.70;99.90
7325;DHT22;3703;48.016;7.802;2022-07-09T14:39:58;31.10;99.90
7325;DHT22;3703;48.016;7.802;2022-07-09T14:42:46;31.10;99.90
7325;DHT22;3703;48.016;7.802;2022-07-09T14:45:33;31.10;99.90
7325;DHT22;3703;48.016;7.802;2022-07-09T14:48:21;30.90;99.90
7325;DHT22;3703;48.016;7.802;2022-07-09T14:51:10;30.80;99.90
7325;DHT22;3703;48.016;7.802;2022-07-09T14:53:58;30.60;99.90
7325;DHT22;3703;48.016;7.802;2022-07-09T14:56:47;30.60;99.90
7325;DHT22;3703;48.016;7.802;2022-07-09T14:59:35;30.50;99.90
7325;DHT22;3703;48.016;7.802;2022-07-09T15:02:23;30.10;99.90
7325;DHT22;3703;48.016;7.802;2022-07-09T15:05:10;29.50;99.90
7325;DHT22;3703;48.016;7.802;2022-07-09T15:07:59;29.70;99.90
7325;DHT22;3703;48.016;7.802;2022-07-09T15:10:47;30.00;99.90
7325;DHT22;3703;48.016;7.802;2022-07-09T15:13:35;30.20;99.90
7325;DHT22;3703;48.016;7.802;2022-07-09T15:16:23;30.50;99.90
7325;DHT22;3703;48.016;7.802;2022-07-09T15:19:11;30.60;99.90
7325;DHT22;3703;48.016;7.802;2022-07-09T15:21:58;30.70;99.90
7325;DHT22;3703;48.016;7.802;2022-07-09T15:24:48;30.70;99.90
7325;DHT22;3703;48.016;7.802;2022-07-09T15:27:35;30.00;99.90
7325;DHT22;3703;48.016;7.802;2022-07-09T15:30:24;29.80;99.90
7325;DHT22;3703;48.016;7.802;2022-07-09T15:33:12;29.80;99.90
7325;DHT22;3703;48.016;7.802;2022-07-09T15:36:01;30.00;99.90
7325;DHT22;3703;48.016;7.802;2022-07-09T15:38:49;30.10;99.90
7325;DHT22;3703;48.016;7.802;2022-07-09T15:41:38;30.20;99.90
7325;DHT22;3703;48.016;7.802;2022-07-09T15:44:26;30.40;99.90
7325;DHT22;3703;48.016;7.802;2022-07-09T15:47:13;30.40;99.90
7325;DHT22;3703;48.016;7.802;2022-07-09T15:50:01;30.20;99.90
7325;DHT22;3703;48.016;7.802;2022-07-09T15:52:49;30.10;99.90
7325;DHT22;3703;48.016;7.802;2022-07-09T15:55:36;30.00;99.90
7325;DHT22;3703;48.016;7.802;2022-07-09T15:58:25;29.70;99.90
7325;DHT22;3703;48.016;7.802;2022-07-09T16:01:14;29.90;99.90
7325;DHT22;3703;48.016;7.802;2022-07-09T16:04:01;29.90;99.90
7325;DHT22;3703;48.016;7.802;2022-07-09T16:06:49;30.00;99.90
7325;DHT22;3703;48.016;7.802;2022-07-09T16:09:37;30.00;99.90
7325;DHT22;3703;48.016;7.802;2022-07-09T16:12:24;29.70;99.90
7325;DHT22;3703;48.016;7.802;2022-07-09T16:15:31;29.70;99.90
7325;DHT22;3703;48.016;7.802;2022-07-09T16:18:19;29.50;99.90
7325;DHT22;3703;48.016;7.802;2022-07-09T16:21:07;29.40;99.90
7325;DHT22;3703;48.016;7.802;2022-07-09T16:23:55;29.30;99.90
7325;DHT22;3703;48.016;7.802;2022-07-09T16:26:42;29.10;99.90
7325;DHT22;3703;48.016;7.802;2022-07-09T16:29:30;29.10;99.90
7325;DHT22;3703;48.016;7.802;2022-07-09T16:32:19;28.80;99.90
7325;DHT22;3703;48.016;7.802;2022-07-09T16:35:08;28.70;99.90
7325;DHT22;3703;48.016;7.802;2022-07-09T16:37:57;28.50;99.90
7325;DHT22;3703;48.016;7.802;2022-07-09T16:40:44;28.70;99.90
7325;DHT22;3703;48.016;7.802;2022-07-09T16:43:32;28.80;99.90
7325;DHT22;3703;48.016;7.802;2022-07-09T16:46:20;28.60;99.90
7325;DHT22;3703;48.016;7.802;2022-07-09T16:49:09;28.60;99.90
7325;DHT22;3703;48.016;7.802;2022-07-09T16:51:57;28.60;99.90
7325;DHT22;3703;48.016;7.802;2022-07-09T16:54:44;28.70;99.90
7325;DHT22;3703;48.016;7.802;2022-07-09T16:57:32;28.60;99.90
7325;DHT22;3703;48.016;7.802;2022-07-09T17:00:20;28.40;99.90
7325;DHT22;3703;48.016;7.802;2022-07-09T17:03:08;28.30;99.90
7325;DHT22;3703;48.016;7.802;2022-07-09T17:06:00;28.40;99.90
7325;DHT22;3703;48.016;7.802;2022-07-09T17:08:49;28.50;99.90
7325;DHT22;3703;48.016;7.802;2022-07-09T17:11:38;28.50;99.90
7325;DHT22;3703;48.016;7.802;2022-07-09T17:14:25;28.50;99.90
7325;DHT22;3703;48.016;7.802;2022-07-09T17:17:13;28.30;99.90
7325;DHT22;3703;48.016;7.802;2022-07-09T17:20:01;28.20;99.90
7325;DHT22;3703;48.016;7.802;2022-07-09T17:22:52;28.10;99.90
7325;DHT22;3703;48.016;7.802;2022-07-09T17:25:40;28.10;99.90
7325;DHT22;3703;48.016;7.802;2022-07-09T17:28:28;28.10;99.90
7325;DHT22;3703;48.016;7.802;2022-07-09T17:31:15;27.90;99.90
7325;DHT22;3703;48.016;7.802;2022-07-09T17:34:03;27.90;99.90
7325;DHT22;3703;48.016;7.802;2022-07-09T17:36:51;27.80;99.90
7325;DHT22;3703;48.016;7.802;2022-07-09T17:39:40;28.00;99.90
7325;DHT22;3703;48.016;7.802;2022-07-09T17:42:28;27.90;99.90
7325;DHT22;3703;48.016;7.802;2022-07-09T17:45:16;27.70;99.90
7325;DHT22;3703;48.016;7.802;2022-07-09T17:48:05;27.70;99.90
7325;DHT22;3703;48.016;7.802;2022-07-09T17:50:53;27.60;99.90
7325;DHT22;3703;48.016;7.802;2022-07-09T17:53:40;27.60;99.90
7325;DHT22;3703;48.016;7.802;2022-07-09T17:56:29;27.50;99.90
7325;DHT22;3703;48.016;7.802;2022-07-09T17:59:17;27.50;99.90
7325;DHT22;3703;48.016;7.802;2022-07-09T18:02:05;27.40;99.90
7325;DHT22;3703;48.016;7.802;2022-07-09T18:04:53;27.40;99.90
7325;DHT22;3703;48.016;7.802;2022-07-09T18:07:41;27.40;99.90
7325;DHT22;3703;48.016;7.802;2022-07-09T18:10:29;27.20;99.90
7325;DHT22;3703;48.016;7.802;2022-07-09T18:13:18;27.30;99.90
7325;DHT22;3703;48.016;7.802;2022-07-09T18:16:07;27.30;99.90
7325;DHT22;3703;48.016;7.802;2022-07-09T18:18:54;27.30;99.90
7325;DHT22;3703;48.016;7.802;2022-07-09T18:21:42;27.30;99.90
7325;DHT22;3703;48.016;7.802;2022-07-09T18:24:31;27.40;99.90
7325;DHT22;3703;48.016;7.802;2022-07-09T18:27:19;27.20;99.90
7325;DHT22;3703;48.016;7.802;2022-07-09T18:30:08;27.00;99.90